Portada
METAR-TAF:

METAR-TAF

Aeroports :

Kashmar, Iran

latitud: 35-16-14N, longitud: 58-28-24E, altitud: 1110 m

Observació

L'informe es va fer fa 12 minuts, a les 05:00 UTC
Vent calma
Temperatura 8°C
Humitat 76%
Pressió 1018 hPa
Visibilitat 10 km o més
Núvols disperses a una alçada de 3500 ft
Cel cobert a una alçada de 9000 ft

METAR: OIMQ 210500Z 00000KT 9999 SCT035 OVC090 08/04 Q1018

Hora: 08:42 (05:12 UTC)


TAF: manca

Observacions i pronòstics meteorològics de més de 4000 aeroports (METAR i TAF).

Les estacions disponibles són els punts grocs i vermells al mapa.

Posi el ratolí al punt desitjat per veure el nom de l'estació.

Feu clic per veure les observacions i els pronòstics meteorològics.

Per canviar el mapa: feu clic els botons verds amb una creu de color negre per apropar; al botó verd amb un guió per allunyar la imatge; o en les fletxes verdes per a mapes adjacents.


METAR-TAF: